Time;durP1;ratioP1;P1;durP2;ratioP2;P2;SDS_P1;SDS_P2;PMS_P1;PMS_P2;Temp;Humidity;BMP_temperature;BMP_pressure;BME280_temperature;BME280_humidity;BME280_pressure;Samples;Min_cycle;Max_cycle;Signal;HPM_P1;HPM_P2
2023/07/03 00:00:11;;;;;;;;;6.75;5.25;;;;;18.43;63.00;100844.56;5047579;28;8817;-66
2023/07/03 00:02:38;;;;;;;;;4.00;4.00;;;;;18.43;63.15;100850.03;5039586;28;8837;-69
2023/07/03 00:05:06;;;;;;;;;4.50;3.00;;;;;18.42;63.24;100845.66;5044157;28;8838;-66
2023/07/03 00:07:33;;;;;;;;;7.67;6.67;;;;;18.42;63.31;100834.75;5040997;28;8833;-65
2023/07/03 00:09:59;;;;;;;;;7.00;6.50;;;;;18.41;63.41;100846.75;5049958;28;9672;-68
2023/07/03 00:12:26;;;;;;;;;11.00;7.00;;;;;18.38;63.31;100831.69;5037256;28;8927;-68
2023/07/03 00:14:52;;;;;;;;;6.75;6.00;;;;;18.40;63.58;100836.91;5049246;28;8970;-68
2023/07/03 00:17:19;;;;;;;;;9.25;6.00;;;;;18.36;63.65;100830.31;5035208;28;8849;-66
2023/07/03 00:19:45;;;;;;;;;3.75;3.75;;;;;18.38;63.79;100831.69;5046786;28;9573;-67
2023/07/03 00:22:12;;;;;;;;;7.50;3.75;;;;;18.38;63.76;100831.69;5042507;28;8888;-66
2023/07/03 00:24:38;;;;;;;;;5.25;5.25;;;;;18.37;63.80;100842.84;5043209;28;8869;-66
2023/07/03 00:27:05;;;;;;;;;6.00;4.00;;;;;18.38;64.08;100839.03;5049370;28;8845;-64
2023/07/03 00:29:33;;;;;;;;;7.00;5.50;;;;;18.39;64.03;100821.63;5040357;28;8842;-65
2023/07/03 00:32:00;;;;;;;;;10.00;6.75;;;;;18.40;64.02;100820.56;5030166;28;8848;-64
2023/07/03 00:34:28;;;;;;;;;9.33;7.00;;;;;18.41;63.88;100824.94;5043083;28;8937;-64
2023/07/03 00:36:54;;;;;;;;;5.75;4.00;;;;;18.37;64.27;100816.41;5049902;28;8945;-65
2023/07/03 00:39:21;;;;;;;;;7.50;7.00;;;;;18.35;64.40;100809.56;5048356;28;8850;-66
2023/07/03 00:41:47;;;;;;;;;4.00;3.25;;;;;18.36;64.27;100817.50;5039564;28;8870;-68
2023/07/03 00:44:16;;;;;;;;;9.75;6.75;;;;;18.34;64.53;100818.81;5047320;28;8869;-68
2023/07/03 00:46:48;;;;;;;;;5.00;4.25;;;;;18.34;64.58;100818.81;5044272;28;8899;-65
2023/07/03 00:49:17;;;;;;;;;10.75;6.00;;;;;18.33;65.25;100818.00;5033830;28;8854;-67
2023/07/03 00:51:48;;;;;;;;;5.50;4.00;;;;;18.33;65.61;100814.44;5042869;28;8922;-65
2023/07/03 00:54:15;;;;;;;;;6.50;5.00;;;;;18.33;66.11;100809.00;5041567;28;9516;-65
2023/07/03 00:56:41;;;;;;;;;6.25;4.50;;;;;18.29;66.18;100804.03;5037411;28;8855;-67
2023/07/03 00:59:08;;;;;;;;;4.25;3.50;;;;;18.26;66.43;100820.84;5045604;28;8836;-68
2023/07/03 01:01:47;;;;;;;;;2.67;2.00;;;;;18.27;66.41;100821.69;5045053;28;8848;-66
2023/07/03 01:04:21;;;;;;;;;3.25;3.25;;;;;18.30;66.72;100826.66;5048330;28;9018;-68
2023/07/03 01:07:06;;;;;;;;;3.00;3.00;;;;;18.31;66.73;100824.75;5047659;28;8838;-67
2023/07/03 01:09:39;;;;;;;;;4.75;4.25;;;;;18.25;66.85;100818.38;5043872;28;8829;-65
2023/07/03 01:12:07;;;;;;;;;5.75;5.50;;;;;18.24;67.18;100817.56;5042691;28;8829;-67
2023/07/03 01:14:36;;;;;;;;;5.33;4.00;;;;;18.23;67.05;100810.47;5029835;28;8822;-67
2023/07/03 01:17:09;;;;;;;;;4.50;3.00;;;;;18.24;66.79;100817.56;5047206;28;9025;-66
2023/07/03 01:19:40;;;;;;;;;2.25;2.25;;;;;18.23;66.98;100821.38;5043991;28;9558;-67
2023/07/03 01:22:16;;;;;;;;;3.25;3.25;;;;;18.22;67.04;100816.97;5047848;28;8842;-66
2023/07/03 01:24:52;;;;;;;;;3.33;3.33;;;;;18.23;66.65;100815.06;5042121;28;8840;-68
2023/07/03 01:27:22;;;;;;;;;3.00;1.50;;;;;18.23;66.69;100828.69;5039846;28;8917;-68
2023/07/03 01:29:50;;;;;;;;;6.00;5.25;;;;;18.19;66.22;100816.63;5036764;28;8898;-67
2023/07/03 01:32:22;;;;;;;;;3.50;3.50;;;;;18.10;65.79;100816.22;5047344;28;8960;-67
2023/07/03 01:34:53;;;;;;;;;4.25;3.25;;;;;18.06;65.16;100819.66;5045172;28;8818;-67
2023/07/03 01:37:27;;;;;;;;;4.00;3.75;;;;;17.99;64.03;100825.28;5043440;28;8922;-66
2023/07/03 01:39:55;;;;;;;;;4.00;2.75;;;;;17.95;62.43;100829.56;5046502;28;8914;-65
2023/07/03 01:42:23;;;;;;;;;2.00;2.00;;;;;17.96;61.40;100831.22;5033852;28;8818;-68
2023/07/03 01:44:50;;;;;;;;;2.00;1.25;;;;;17.95;60.30;100826.84;5041619;28;8837;-67
2023/07/03 01:47:18;;;;;;;;;3.25;2.75;;;;;17.99;60.24;100825.28;5048872;28;8849;-67
2023/07/03 01:49:44;;;;;;;;;2.00;2.00;;;;;18.02;59.83;100831.03;5044160;28;8840;-68
2023/07/03 01:52:17;;;;;;;;;2.75;2.75;;;;;18.02;58.98;100825.59;5039187;28;8853;-68
2023/07/03 01:54:49;;;;;;;;;1.50;1.50;;;;;17.97;58.01;100825.50;5035525;28;8832;-68
2023/07/03 01:57:22;;;;;;;;;0.50;0.50;;;;;17.94;57.11;100817.81;5046984;28;8907;-68
2023/07/03 01:59:52;;;;;;;;;1.75;1.00;;;;;17.98;56.87;100834.50;5039987;28;8907;-68
2023/07/03 02:02:27;;;;;;;;;1.75;1.00;;;;;17.97;56.30;100824.69;5046955;28;8868;-67
2023/07/03 02:05:04;;;;;;;;;2.00;1.25;;;;;17.93;55.79;100821.63;5040803;28;8924;-67
2023/07/03 02:07:32;;;;;;;;;1.25;1.25;;;;;17.92;54.78;100825.41;5050046;28;8845;-67
2023/07/03 02:09:59;;;;;;;;;1.00;1.00;;;;;17.91;54.26;100822.94;5038455;28;8837;-68
2023/07/03 02:12:25;;;;;;;;;1.00;1.00;;;;;17.89;53.80;100820.44;5026412;28;8876;-67
2023/07/03 02:14:52;;;;;;;;;0.50;0.00;;;;;17.88;53.28;100820.72;5051475;28;8830;-68
2023/07/03 02:17:19;;;;;;;;;0.00;0.00;;;;;17.88;52.85;100818.00;5050323;28;8830;-67
2023/07/03 02:19:45;;;;;;;;;2.00;1.00;;;;;17.90;52.54;100811.22;5043306;28;8872;-68
2023/07/03 02:22:12;;;;;;;;;2.75;1.00;;;;;17.88;51.71;100813.38;5045715;28;8905;-68
2023/07/03 02:24:40;;;;;;;;;2.00;2.00;;;;;17.88;51.70;100823.44;5047040;28;8864;-68
2023/07/03 02:27:07;;;;;;;;;0.00;0.00;;;;;17.86;51.19;100820.94;5052146;28;8849;-67
2023/07/03 02:29:33;;;;;;;;;0.50;0.50;;;;;17.81;49.75;100814.56;5034999;28;8814;-67
2023/07/03 02:32:00;;;;;;;;;0.00;0.00;;;;;17.82;50.12;100818.94;5038661;28;8854;-67
2023/07/03 02:34:28;;;;;;;;;0.00;0.00;;;;;17.83;50.14;100831.50;5051358;28;8834;-67
2023/07/03 02:36:58;;;;;;;;;0.00;0.00;;;;;17.78;50.48;100819.44;5034264;28;8915;-69
2023/07/03 02:39:26;;;;;;;;;0.00;0.00;;;;;17.77;50.08;100817.78;5046376;28;8877;-66
2023/07/03 02:41:53;;;;;;;;;0.50;0.50;;;;;17.79;49.89;100821.09;5043474;28;8816;-68
2023/07/03 02:44:19;;;;;;;;;0.00;0.00;;;;;17.81;49.73;100825.47;5051240;28;8830;-66
2023/07/03 02:46:47;;;;;;;;;0.75;0.75;;;;;17.81;49.14;100815.41;5047426;28;9550;-67
2023/07/03 02:49:14;;;;;;;;;0.00;0.00;;;;;17.82;49.90;100805.31;5045099;28;8956;-67
2023/07/03 02:51:43;;;;;;;;;3.75;0.00;;;;;17.78;49.36;100813.16;5045350;28;8825;-67
2023/07/03 02:54:10;;;;;;;;;0.50;0.00;;;;;17.81;49.72;100812.66;5048872;28;8838;-66
2023/07/03 02:56:38;;;;;;;;;0.75;0.00;;;;;17.79;49.92;100814.81;5050799;28;8842;-68
2023/07/03 02:59:05;;;;;;;;;0.75;0.00;;;;;17.74;49.39;100818.28;5044416;28;8880;-68
2023/07/03 03:01:36;;;;;;;;;0.75;0.00;;;;;17.72;49.67;100819.56;5046586;28;8833;-68
2023/07/03 03:04:02;;;;;;;;;1.00;1.00;;;;;17.72;49.97;100805.94;5056413;28;8838;-68
2023/07/03 03:06:29;;;;;;;;;0.00;0.00;;;;;17.74;50.11;100814.66;5051352;28;8854;-67
2023/07/03 03:08:56;;;;;;;;;0.50;0.50;;;;;17.74;50.02;100815.56;5051754;28;8918;-66
2023/07/03 03:11:24;;;;;;;;;0.25;0.25;;;;;17.70;49.94;100811.63;5046581;28;10988;-64
2023/07/03 03:13:53;;;;;;;;;0.00;0.00;;;;;17.65;50.08;100800.63;5042537;28;8817;-65
2023/07/03 03:16:20;;;;;;;;;0.00;0.00;;;;;17.63;50.68;100802.78;5041874;28;8915;-67
2023/07/03 03:18:47;;;;;;;;;4.25;1.00;;;;;17.60;50.74;100805.97;5032938;28;8846;-68
2023/07/03 03:21:15;;;;;;;;;1.00;0.00;;;;;17.57;50.65;100801.00;5046668;28;8948;-66
2023/07/03 03:23:43;;;;;;;;;1.00;1.00;;;;;17.58;50.99;100810.00;5047987;28;8899;-67
2023/07/03 03:26:09;;;;;;;;;0.75;0.75;;;;;17.59;50.76;100812.50;5044013;28;8846;-70
2023/07/03 03:28:36;;;;;;;;;0.75;0.00;;;;;17.64;50.96;100817.22;5051081;28;8842;-69
2023/07/03 03:31:04;;;;;;;;;2.00;1.00;;;;;17.66;51.20;100813.19;5041029;28;8828;-68
2023/07/03 03:33:34;;;;;;;;;0.00;0.00;;;;;17.68;51.40;100816.47;5044025;28;8936;-68
2023/07/03 03:36:00;;;;;;;;;2.00;0.00;;;;;17.67;51.48;100814.84;5037479;28;8849;-68
2023/07/03 03:38:27;;;;;;;;;0.00;0.00;;;;;17.69;51.66;100818.13;5029921;28;8844;-69
2023/07/03 03:40:56;;;;;;;;;1.25;0.00;;;;;17.66;51.61;100805.03;5031670;28;8907;-67
2023/07/03 03:43:26;;;;;;;;;0.00;0.00;;;;;17.59;51.66;100811.66;5064219;28;8923;-68
2023/07/03 03:45:55;;;;;;;;;1.00;0.75;;;;;17.55;51.35;100817.59;5042609;28;8838;-66
2023/07/03 03:48:25;;;;;;;;;0.50;0.50;;;;;17.55;52.02;100824.94;5049650;28;8911;-66
2023/07/03 03:50:52;;;;;;;;;0.00;0.00;;;;;17.53;51.93;100818.88;5047708;28;8879;-68
2023/07/03 03:53:19;;;;;;;;;1.00;1.00;;;;;17.52;51.75;100822.69;5038929;28;9703;-65
2023/07/03 03:55:50;;;;;;;;;1.00;1.00;;;;;17.54;52.27;100823.25;5038651;28;8828;-68
2023/07/03 03:58:18;;;;;;;;;2.00;1.00;;;;;17.48;51.84;100821.50;5043291;28;8952;-68
2023/07/03 04:00:45;;;;;;;;;1.50;0.50;;;;;17.46;51.55;100820.91;5046521;28;8849;-68
2023/07/03 04:03:12;;;;;;;;;1.25;1.25;;;;;17.39;52.39;100820.25;5036143;28;8841;-68
2023/07/03 04:05:41;;;;;;;;;2.00;1.00;;;;;17.36;52.46;100818.00;5050313;28;8818;-67
2023/07/03 04:08:08;;;;;;;;;0.50;0.50;;;;;17.37;52.25;100822.34;5047164;28;8821;-67
2023/07/03 04:10:36;;;;;;;;;1.00;1.00;;;;;17.36;52.69;100826.97;5040899;28;8833;-67
2023/07/03 04:13:03;;;;;;;;;1.00;1.00;;;;;17.34;53.10;100820.09;5037197;28;8834;-68
2023/07/03 04:15:33;;;;;;;;;2.00;2.00;;;;;17.34;53.17;100826.41;5049524;28;8992;-68
2023/07/03 04:18:00;;;;;;;;;0.00;0.00;;;;;17.38;53.26;100827.56;5048036;28;8830;-68
2023/07/03 04:20:27;;;;;;;;;1.00;1.00;;;;;17.38;53.48;100824.00;5050981;28;8887;-68
2023/07/03 04:22:54;;;;;;;;;1.00;1.00;;;;;17.34;53.24;100826.41;5044196;28;8864;-68
2023/07/03 04:25:21;;;;;;;;;1.00;0.00;;;;;17.35;53.73;100822.59;5048232;28;8869;-68
2023/07/03 04:27:48;;;;;;;;;1.00;1.00;;;;;17.37;54.00;100825.06;5042458;28;8818;-67
2023/07/03 04:30:15;;;;;;;;;1.75;1.00;;;;;17.38;53.65;100829.44;5040934;28;11586;-65
2023/07/03 04:32:41;;;;;;;;;2.00;1.00;;;;;17.33;53.88;100824.72;5048306;28;8854;-68
2023/07/03 04:35:08;;;;;;;;;1.00;0.00;;;;;17.36;54.00;100832.41;5048894;28;8982;-68
2023/07/03 04:37:36;;;;;;;;;0.00;0.00;;;;;17.33;54.06;100829.34;5041830;28;8904;-68
2023/07/03 04:40:03;;;;;;;;;2.33;1.33;;;;;17.34;54.07;100833.72;5038776;28;8852;-68
2023/07/03 04:42:32;;;;;;;;;0.50;0.50;;;;;17.34;54.03;100829.13;5038522;28;8913;-68
2023/07/03 04:45:00;;;;;;;;;0.00;0.00;;;;;17.36;54.27;100826.97;5046382;28;8853;-68
2023/07/03 04:47:27;;;;;;;;;1.00;0.25;;;;;17.39;54.36;100823.78;5045846;28;8842;-67
2023/07/03 04:49:55;;;;;;;;;0.00;0.00;;;;;17.38;54.22;100833.03;5045417;28;8826;-68
2023/07/03 04:52:27;;;;;;;;;2.00;1.50;;;;;17.36;54.03;100831.59;5044280;28;8840;-68
2023/07/03 04:54:54;;;;;;;;;2.00;1.00;;;;;17.34;53.97;100829.13;5044718;28;8864;-67
2023/07/03 04:57:20;;;;;;;;;1.00;1.00;;;;;17.29;54.49;100827.09;5044726;28;8838;-68
2023/07/03 04:59:48;;;;;;;;;1.00;1.00;;;;;17.29;54.75;100829.81;5035058;28;8904;-68
2023/07/03 05:02:17;;;;;;;;;0.50;0.50;;;;;17.34;54.77;100841.88;5053777;28;8832;-67
2023/07/03 05:04:45;;;;;;;;;0.00;0.00;;;;;17.38;54.75;100835.75;5050331;28;8844;-68
2023/07/03 05:07:11;;;;;;;;;0.00;0.00;;;;;17.38;54.41;100841.19;5049915;28;8984;-68
2023/07/03 05:09:38;;;;;;;;;0.00;0.00;;;;;17.38;54.46;100840.31;5048297;28;8872;-69
2023/07/03 05:12:05;;;;;;;;;1.00;1.00;;;;;17.40;54.50;100840.94;5041314;28;9571;-68
2023/07/03 05:14:31;;;;;;;;;0.75;0.00;;;;;17.41;54.73;100845.31;5054806;28;8830;-68
2023/07/03 05:16:58;;;;;;;;;1.25;1.00;;;;;17.40;55.01;100841.75;5046863;28;8907;-68
2023/07/03 05:19:24;;;;;;;;;0.00;0.00;;;;;17.42;55.00;100838.78;5044479;28;8870;-68
2023/07/03 05:21:51;;;;;;;;;1.00;1.00;;;;;17.46;55.18;100839.97;5025075;28;8838;-68
2023/07/03 05:24:17;;;;;;;;;0.75;0.75;;;;;17.47;55.10;100833.47;5048359;28;8868;-68
2023/07/03 05:26:44;;;;;;;;;1.75;1.25;;;;;17.45;54.94;100843.75;5043361;28;8849;-67
2023/07/03 05:29:11;;;;;;;;;0.00;0.00;;;;;17.38;55.18;100845.78;5041264;28;8865;-68
2023/07/03 05:31:37;;;;;;;;;1.00;1.00;;;;;17.34;54.95;100847.31;5049538;28;8840;-68
2023/07/03 05:34:04;;;;;;;;;1.75;0.25;;;;;17.40;55.18;100858.09;5045834;28;8841;-68
2023/07/03 05:36:31;;;;;;;;;2.00;1.00;;;;;17.54;55.39;100864.94;5040164;28;8842;-68
2023/07/03 05:38:57;;;;;;;;;1.00;1.00;;;;;17.76;55.10;100858.88;5053685;28;8806;-68
2023/07/03 05:41:24;;;;;;;;;2.25;1.25;;;;;17.96;54.35;100861.16;5044982;28;8914;-67
2023/07/03 05:43:50;;;;;;;;;1.50;1.50;;;;;18.00;53.73;100865.06;5049367;28;8845;-68
2023/07/03 05:46:17;;;;;;;;;1.00;1.00;;;;;18.04;53.76;100856.16;5043306;28;8848;-66
2023/07/03 05:48:45;;;;;;;;;1.50;1.50;;;;;18.06;53.89;100864.06;5056681;28;8826;-68
2023/07/03 05:51:12;;;;;;;;;1.75;1.00;;;;;18.14;54.00;100868.31;5056835;28;10146;-67
2023/07/03 05:53:38;;;;;;;;;1.00;1.00;;;;;18.23;53.89;100875.00;5043821;28;8838;-68
2023/07/03 05:56:05;;;;;;;;;1.25;1.00;;;;;18.22;53.52;100873.38;5056198;28;8826;-69
2023/07/03 05:58:32;;;;;;;;;2.00;1.00;;;;;18.23;53.95;100861.38;5056487;28;8866;-69
2023/07/03 06:00:59;;;;;;;;;0.50;0.50;;;;;18.20;53.88;100862.72;5051027;28;8965;-68
2023/07/03 06:03:25;;;;;;;;;1.00;0.75;;;;;18.18;53.46;100867.56;5056319;28;8923;-69
2023/07/03 06:05:52;;;;;;;;;1.25;1.25;;;;;18.08;53.81;100861.94;5057126;28;8917;-70
2023/07/03 06:08:19;;;;;;;;;1.75;1.75;;;;;18.10;53.81;100865.25;5043520;28;8824;-67
2023/07/03 06:10:46;;;;;;;;;1.00;1.00;;;;;18.13;53.78;100867.50;5036213;28;8848;-67
2023/07/03 06:13:13;;;;;;;;;1.00;0.00;;;;;18.11;53.87;100868.78;5035108;28;8852;-66
2023/07/03 06:15:41;;;;;;;;;1.00;1.00;;;;;18.03;54.04;100867.31;5039349;28;8845;-67
2023/07/03 06:18:08;;;;;;;;;1.00;1.00;;;;;17.99;54.39;100863.41;5055127;28;8830;-67
2023/07/03 06:20:35;;;;;;;;;0.75;0.75;;;;;18.03;54.11;100867.31;5057990;28;8826;-66
2023/07/03 06:23:01;;;;;;;;;1.00;1.00;;;;;17.95;54.29;100863.06;5063081;28;8939;-67
2023/07/03 06:25:28;;;;;;;;;3.75;2.00;;;;;17.89;54.28;100869.47;5063831;28;9583;-69
2023/07/03 06:27:54;;;;;;;;;0.00;0.00;;;;;17.92;54.39;100871.72;5076727;28;8846;-68
2023/07/03 06:30:21;;;;;;;;;2.00;1.00;;;;;17.93;54.54;100875.25;5074785;28;8871;-66
2023/07/03 06:32:47;;;;;;;;;1.00;1.00;;;;;17.93;54.38;100873.38;5076366;28;8815;-66
2023/07/03 06:35:14;;;;;;;;;0.75;0.75;;;;;17.95;54.62;100882.13;5071874;28;8900;-68
2023/07/03 06:37:41;;;;;;;;;1.50;1.50;;;;;17.96;54.75;100881.06;5036510;28;8918;-67
2023/07/03 06:40:12;;;;;;;;;1.25;1.00;;;;;18.00;54.61;100873.22;5042664;28;8866;-68
2023/07/03 06:42:38;;;;;;;;;0.50;0.50;;;;;18.04;54.79;100882.56;5049395;28;8828;-66
2023/07/03 06:45:12;;;;;;;;;1.00;1.00;;;;;18.08;54.48;100875.56;5034528;28;8914;-65
2023/07/03 06:47:38;;;;;;;;;3.00;2.00;;;;;18.09;54.38;100879.94;5036062;28;8840;-68
2023/07/03 06:50:06;;;;;;;;;1.75;1.75;;;;;18.05;54.43;100878.78;5031273;28;8832;-65
2023/07/03 06:52:37;;;;;;;;;3.00;1.00;;;;;18.03;53.94;100880.94;5032168;28;8913;-63
2023/07/03 06:55:04;;;;;;;;;2.00;1.50;;;;;18.01;54.03;100883.88;5056911;23;8998;-66
2023/07/03 06:57:33;;;;;;;;;0.00;0.00;;;;;18.05;54.28;100878.78;5040528;28;8826;-66
2023/07/03 07:00:00;;;;;;;;;1.00;1.00;;;;;18.09;54.43;100871.78;5049024;28;8828;-66
2023/07/03 07:02:26;;;;;;;;;2.50;1.25;;;;;18.13;54.40;100880.28;5051413;28;8962;-66
2023/07/03 07:04:55;;;;;;;;;1.50;1.50;;;;;18.15;54.59;100878.13;5046850;28;8822;-64
2023/07/03 07:07:21;;;;;;;;;1.00;1.00;;;;;18.18;54.79;100864.03;5042379;28;8850;-64
2023/07/03 07:09:48;;;;;;;;;2.00;0.50;;;;;18.20;54.48;100870.06;5051719;28;8855;-64
2023/07/03 07:12:14;;;;;;;;;5.50;2.00;;;;;18.20;54.40;100875.53;5049675;28;8828;-64
2023/07/03 07:14:41;;;;;;;;;0.00;0.00;;;;;18.22;54.27;100878.81;5051424;28;8956;-64
2023/07/03 07:17:07;;;;;;;;;2.00;2.00;;;;;18.18;54.03;100888.56;5051017;28;8816;-65
2023/07/03 07:19:34;;;;;;;;;6.75;2.00;;;;;18.18;53.74;100881.19;5051631;28;8946;-64
2023/07/03 07:22:00;;;;;;;;;1.00;1.00;;;;;18.20;54.04;100898.16;5051473;28;8835;-64
2023/07/03 07:24:28;;;;;;;;;1.00;1.00;;;;;18.20;53.07;100898.16;5050103;28;8886;-64
2023/07/03 07:26:54;;;;;;;;;2.25;1.00;;;;;18.17;52.86;100903.25;5051357;28;8894;-64
2023/07/03 07:29:24;;;;;;;;;0.00;0.00;;;;;18.10;52.30;100899.84;5051294;28;8906;-64
2023/07/03 07:31:55;;;;;;;;;0.00;0.00;;;;;18.12;52.25;100900.44;5047449;28;8862;-65
2023/07/03 07:34:23;;;;;;;;;0.75;0.75;;;;;18.17;52.55;100906.78;5049334;28;8820;-64
2023/07/03 07:36:50;;;;;;;;;0.00;0.00;;;;;18.21;51.92;100901.69;5051394;28;9523;-64
2023/07/03 07:39:19;;;;;;;;;0.00;0.00;;;;;18.24;51.59;100899.31;5051505;28;8849;-65
2023/07/03 07:41:46;;;;;;;;;0.00;0.00;;;;;18.26;51.69;100902.59;5051242;28;8835;-65
2023/07/03 07:44:13;;;;;;;;;0.75;0.75;;;;;18.26;52.23;100899.06;5051466;28;8841;-64
2023/07/03 07:46:39;;;;;;;;;0.25;0.25;;;;;18.24;52.30;100901.22;5050832;28;8854;-64
2023/07/03 07:49:06;;;;;;;;;0.00;0.00;;;;;18.33;52.36;100913.38;5051255;28;8949;-64
2023/07/03 07:51:32;;;;;;;;;1.50;0.50;;;;;18.41;52.67;100904.78;5051149;28;8950;-64
2023/07/03 07:53:59;;;;;;;;;3.00;2.00;;;;;18.46;52.28;100918.50;5051149;28;8823;-65
2023/07/03 07:56:27;;;;;;;;;0.25;0.25;;;;;18.50;52.23;100922.41;5050082;28;8824;-64
2023/07/03 07:58:56;;;;;;;;;1.50;1.50;;;;;18.46;51.80;100910.34;5049911;28;8851;-64
2023/07/03 08:01:22;;;;;;;;;2.25;1.50;;;;;18.41;52.29;100910.25;5049499;28;8920;-65
2023/07/03 08:03:49;;;;;;;;;0.75;0.75;;;;;18.34;52.34;100909.56;5050838;28;8839;-64
2023/07/03 08:06:16;;;;;;;;;1.00;1.00;;;;;18.33;52.51;100910.66;5051013;28;8853;-65
2023/07/03 08:08:43;;;;;;;;;0.00;0.00;;;;;18.34;52.93;100917.75;5049457;28;8929;-65
2023/07/03 08:11:10;;;;;;;;;1.00;1.00;;;;;18.38;53.25;100920.81;5047653;28;8840;-64
2023/07/03 08:13:39;;;;;;;;;1.00;1.00;;;;;18.35;52.76;100908.53;5040974;28;8961;-64
2023/07/03 08:16:07;;;;;;;;;2.25;1.25;;;;;18.27;53.18;100909.72;5046434;28;8820;-64
2023/07/03 08:18:34;;;;;;;;;1.50;1.25;;;;;18.21;53.08;100915.31;5050673;28;8846;-64
2023/07/03 08:21:01;;;;;;;;;1.75;1.75;;;;;18.17;53.26;100912.25;5032979;28;8857;-64
2023/07/03 08:23:29;;;;;;;;;1.00;0.00;;;;;18.23;53.40;100924.91;5030911;28;8829;-64
2023/07/03 08:25:58;;;;;;;;;0.25;0.25;;;;;18.33;52.65;100920.72;5030839;28;8834;-64
2023/07/03 08:28:25;;;;;;;;;1.25;0.75;;;;;18.47;52.46;100913.88;5049038;28;8942;-64
2023/07/03 08:30:51;;;;;;;;;0.50;0.50;;;;;18.58;51.45;100931.25;5048963;28;9598;-64
2023/07/03 08:33:18;;;;;;;;;0.00;0.00;;;;;18.62;51.07;100924.25;5050529;28;8836;-64
2023/07/03 08:35:44;;;;;;;;;0.75;0.00;;;;;18.58;50.81;100921.19;5050662;28;8842;-64
2023/07/03 08:38:14;;;;;;;;;0.00;0.00;;;;;18.56;50.98;100928.78;5050765;28;8815;-64
2023/07/03 08:40:42;;;;;;;;;0.00;0.00;;;;;18.48;50.96;100926.47;5049863;28;8919;-64
2023/07/03 08:43:13;;;;;;;;;0.25;0.00;;;;;18.49;51.11;100923.47;5050350;28;8832;-64
2023/07/03 08:45:44;;;;;;;;;1.75;1.75;;;;;18.47;50.63;100930.25;5050113;28;8824;-64
2023/07/03 08:48:16;;;;;;;;;0.00;0.00;;;;;18.49;50.47;100933.56;5048982;28;8827;-64
2023/07/03 08:50:51;;;;;;;;;1.00;1.00;;;;;18.45;50.26;100940.56;5050060;28;8831;-64
2023/07/03 08:53:22;;;;;;;;;0.00;0.00;;;;;18.42;50.15;100943.78;5050340;28;9219;-64
2023/07/03 08:55:55;;;;;;;;;0.50;0.50;;;;;18.38;50.54;100950.78;5048942;28;8922;-64
2023/07/03 08:58:22;;;;;;;;;0.00;0.00;;;;;18.33;50.73;100953.44;5049924;28;8820;-64
2023/07/03 09:01:20;;;;;;;;;0.00;0.00;;;;;18.39;50.80;100949.72;5049812;28;8836;-64
2023/07/03 09:04:06;;;;;;;;;0.75;0.75;;;;;18.48;50.75;100945.53;5032282;28;8848;-64
2023/07/03 09:06:42;;;;;;;;;0.50;0.00;;;;;18.59;49.96;100943.81;5048732;28;9527;-64
2023/07/03 09:09:23;;;;;;;;;0.75;0.00;;;;;18.63;50.23;100953.97;5050081;28;8842;-64
2023/07/03 09:12:10;;;;;;;;;1.00;1.00;;;;;18.66;50.06;100958.13;5049608;28;8953;-64
2023/07/03 09:14:43;;;;;;;;;1.00;0.00;;;;;18.56;50.57;100950.59;5048431;28;8819;-64
2023/07/03 09:17:11;;;;;;;;;0.25;0.25;;;;;18.60;50.82;100949.03;5049829;28;8841;-64
2023/07/03 09:19:43;;;;;;;;;2.00;1.00;;;;;18.59;49.74;100957.44;5048717;28;8989;-63
2023/07/03 09:22:25;;;;;;;;;1.00;1.00;;;;;18.51;49.05;100958.66;5049611;28;8863;-64
2023/07/03 09:24:55;;;;;;;;;0.00;0.00;;;;;18.48;49.40;100964.63;5048638;28;8997;-64
2023/07/03 09:27:25;;;;;;;;;3.50;1.25;;;;;18.47;49.40;100963.81;5049687;28;8827;-64
2023/07/03 09:29:54;;;;;;;;;0.00;0.00;;;;;18.51;49.75;100961.38;5049932;28;8855;-64
2023/07/03 09:32:30;;;;;;;;;0.00;0.00;;;;;18.56;49.54;100953.31;5049575;28;8865;-64
2023/07/03 09:35:10;;;;;;;;;0.50;0.50;;;;;18.53;49.69;100953.81;5049896;28;8854;-64
2023/07/03 09:37:39;;;;;;;;;1.75;1.75;;;;;18.49;50.27;100958.09;5049606;28;8898;-64
2023/07/03 09:40:10;;;;;;;;;1.00;1.00;;;;;18.51;50.21;100958.66;5048222;28;8851;-65
2023/07/03 09:42:37;;;;;;;;;2.00;1.00;;;;;18.50;50.40;100967.91;5049444;28;8820;-64
2023/07/03 09:45:13;;;;;;;;;1.00;0.50;;;;;18.46;50.80;100959.41;5049356;28;8824;-64
2023/07/03 09:47:41;;;;;;;;;1.25;0.50;;;;;18.43;50.99;100969.97;5029573;28;8905;-64
2023/07/03 09:50:09;;;;;;;;;1.25;1.00;;;;;18.47;51.22;100957.50;5030140;28;8842;-64
2023/07/03 09:52:43;;;;;;;;;1.00;1.00;;;;;18.64;50.84;100954.84;5029346;28;8837;-64
2023/07/03 09:55:29;;;;;;;;;1.00;1.00;;;;;18.88;50.64;100956.38;5042491;28;8858;-65
2023/07/03 09:57:56;;;;;;;;;2.00;2.00;;;;;19.08;50.43;100960.50;5029684;28;9533;-64
2023/07/03 10:00:25;;;;;;;;;1.00;1.00;;;;;19.08;49.52;100952.31;5047812;28;8908;-65
2023/07/03 10:02:55;;;;;;;;;4.00;0.50;;;;;19.04;48.70;100962.94;5049304;28;8866;-64
2023/07/03 10:05:30;;;;;;;;;0.75;0.75;;;;;19.12;49.51;100956.22;5049355;28;8803;-64
2023/07/03 10:08:03;;;;;;;;;1.00;1.00;;;;;19.12;49.27;100961.66;5048949;28;8862;-64
2023/07/03 10:10:33;;;;;;;;;1.00;1.00;;;;;19.14;49.44;100960.34;5049116;28;8827;-64
2023/07/03 10:13:14;;;;;;;;;1.75;1.75;;;;;19.13;49.88;100955.97;5049026;28;8831;-64
2023/07/03 10:15:42;;;;;;;;;0.00;0.00;;;;;19.17;50.02;100957.13;5048896;28;8819;-64
2023/07/03 10:18:17;;;;;;;;;1.00;1.00;;;;;19.16;49.67;100963.69;5049273;28;8854;-64
2023/07/03 10:20:48;;;;;;;;;2.00;1.00;;;;;19.11;48.64;100966.31;5048980;28;8913;-64
2023/07/03 10:23:22;;;;;;;;;0.00;0.00;;;;;19.10;49.13;100972.03;5049391;28;8896;-64
2023/07/03 10:25:54;;;;;;;;;2.00;1.00;;;;;19.15;48.84;100969.38;5052080;28;8970;-64
2023/07/03 10:28:26;;;;;;;;;2.50;1.00;;;;;19.23;48.94;100968.94;5052766;28;8820;-64
2023/07/03 10:30:58;;;;;;;;;1.50;0.50;;;;;19.27;49.19;100973.66;5052657;28;8897;-64
2023/07/03 10:33:39;;;;;;;;;1.00;1.00;;;;;19.30;49.30;100974.25;5052811;28;8905;-65
2023/07/03 10:36:10;;;;;;;;;0.00;0.00;;;;;19.17;47.13;100975.41;5052413;28;8909;-65
2023/07/03 10:38:39;;;;;;;;;1.75;1.75;;;;;19.11;46.83;100979.13;5051254;28;8827;-65
2023/07/03 10:41:27;;;;;;;;;1.00;1.00;;;;;19.23;47.88;100972.50;5052330;28;8851;-65
2023/07/03 10:44:03;;;;;;;;;1.00;1.00;;;;;19.25;48.25;100981.28;5051397;28;8862;-65
2023/07/03 10:46:38;;;;;;;;;1.00;1.00;;;;;19.22;48.18;100976.31;5052592;28;8850;-65
2023/07/03 10:49:11;;;;;;;;;1.00;1.00;;;;;19.13;47.70;100979.72;5052662;28;8820;-65
2023/07/03 10:51:56;;;;;;;;;1.00;1.00;;;;;19.21;48.26;100977.41;5050930;28;8860;-65
2023/07/03 10:54:52;;;;;;;;;1.75;1.00;;;;;19.27;48.84;100984.56;5052357;28;8830;-65
2023/07/03 10:57:38;;;;;;;;;1.33;0.00;;;;;19.21;49.25;100979.31;5032490;28;8822;-65
2023/07/03 11:00:12;;;;;;;;;2.00;1.00;;;;;19.14;49.36;100978.63;5033084;28;8845;-65
2023/07/03 11:02:51;;;;;;;;;2.25;1.75;;;;;19.15;49.38;100986.56;5052265;28;8855;-64
2023/07/03 11:05:26;;;;;;;;;0.75;0.75;;;;;19.10;48.02;100983.75;5052422;28;8827;-65
2023/07/03 11:08:03;;;;;;;;;0.00;0.00;;;;;19.08;47.22;100985.91;5052378;28;8930;-65
2023/07/03 11:10:46;;;;;;;;;0.75;0.75;;;;;19.06;47.16;100990.78;5050607;28;8823;-65
2023/07/03 11:13:31;;;;;;;;;2.75;1.00;;;;;19.10;46.96;100986.47;5052256;28;8826;-65
2023/07/03 11:15:59;;;;;;;;;0.75;0.00;;;;;19.16;47.32;100982.78;5052026;28;8986;-64
2023/07/03 11:18:48;;;;;;;;;0.00;0.00;;;;;19.24;47.54;100992.44;5052149;28;8934;-64
2023/07/03 11:21:54;;;;;;;;;0.25;0.25;;;;;19.32;47.07;100992.00;5051716;28;8835;-64
2023/07/03 11:24:33;;;;;;;;;0.75;0.25;;;;;19.32;47.04;100983.00;5051730;28;8824;-64
2023/07/03 11:27:05;;;;;;;;;1.00;1.00;;;;;19.35;47.07;100988.78;5051778;28;8839;-64
2023/07/03 11:29:35;;;;;;;;;0.50;0.00;;;;;19.42;46.74;100985.91;5050963;28;8819;-64
2023/07/03 11:32:05;;;;;;;;;0.50;0.50;;;;;19.38;46.45;100987.47;5051726;28;8823;-64
2023/07/03 11:34:33;;;;;;;;;2.00;1.00;;;;;19.38;46.57;100987.47;5050577;28;8835;-64
2023/07/03 11:37:43;;;;;;;;;0.00;0.00;;;;;19.47;46.59;100989.53;5051321;28;8826;-64
2023/07/03 11:40:35;;;;;;;;;1.00;1.00;;;;;19.57;46.46;100980.69;5051824;28;8826;-63
2023/07/03 11:43:18;;;;;;;;;1.00;0.00;;;;;19.53;46.62;100993.19;5051466;28;8892;-64
2023/07/03 11:45:56;;;;;;;;;2.00;2.00;;;;;19.53;47.04;100987.72;5051638;28;8811;-64